Time;durP1;ratioP1;P1;durP2;ratioP2;P2;SDS_P1;SDS_P2;PMS_P1;PMS_P2;Temp;Humidity;BMP_temperature;BMP_pressure;BME280_temperature;BME280_humidity;BME280_pressure;Samples;Min_cycle;Max_cycle;Signal;HPM_P1;HPM_P2
2022/04/13 00:00:49;;;;;;;3.28;2.33;;;11.20;99.90;12.20;93828.00;;;;7389583;19;20627;-78
2022/04/13 00:03:16;;;;;;;6.93;2.55;;;11.20;99.90;12.30;93825.00;;;;7389986;19;20121;-77
2022/04/13 00:05:43;;;;;;;7.85;2.35;;;11.30;99.90;12.40;93821.00;;;;7391411;19;20863;-77
2022/04/13 00:08:17;;;;;;;5.35;2.47;;;11.30;99.90;12.30;93814.00;;;;7389738;19;20529;-78
2022/04/13 00:10:44;;;;;;;4.95;2.22;;;11.40;99.90;12.30;93840.00;;;;7386964;19;20597;-79
2022/04/13 00:13:11;;;;;;;4.13;2.65;;;11.50;99.90;12.30;93834.00;;;;7389572;19;20176;-78
2022/04/13 00:15:52;;;;;;;6.95;2.95;;;11.50;99.90;12.50;93824.00;;;;7389388;19;20141;-79
2022/04/13 00:18:19;;;;;;;4.57;2.60;;;11.50;99.90;12.30;93840.00;;;;7390224;19;20742;-77
2022/04/13 00:20:53;;;;;;;6.95;2.60;;;11.50;99.90;12.20;93837.00;;;;7388274;19;20148;-77
2022/04/13 00:23:20;;;;;;;5.47;2.33;;;11.50;99.90;12.10;93820.00;;;;7389979;19;20470;-78
2022/04/13 00:25:48;;;;;;;6.97;2.72;;;11.40;99.90;12.30;93848.00;;;;7388588;19;20619;-76
2022/04/13 00:28:22;;;;;;;4.22;2.22;;;11.40;99.90;12.30;93836.00;;;;7388695;19;20498;-80
2022/04/13 00:30:50;;;;;;;3.75;2.70;;;11.50;99.90;12.30;93816.00;;;;7389010;19;20140;-78
2022/04/13 00:33:17;;;;;;;6.88;2.20;;;11.50;99.90;12.20;93828.00;;;;7389068;19;20133;-77
2022/04/13 00:35:50;;;;;;;3.67;2.60;;;11.50;99.90;12.30;93827.00;;;;7383619;19;20149;-78
2022/04/13 00:38:19;;;;;;;7.30;2.78;;;11.50;99.90;12.30;93840.00;;;;7389702;19;20145;-77
2022/04/13 00:40:46;;;;;;;4.30;2.78;;;11.40;99.90;12.30;93824.00;;;;7387414;19;20125;-77
2022/04/13 00:43:20;;;;;;;5.00;2.92;;;11.50;99.90;12.50;93829.00;;;;7391011;19;20611;-80
2022/04/13 00:45:48;;;;;;;5.15;2.97;;;11.50;98.70;12.70;93818.00;;;;7396653;19;20137;-78
2022/04/13 00:48:40;;;;;;;4.78;2.60;;;11.70;90.50;12.80;93835.00;;;;7397639;19;20142;-78
2022/04/13 00:51:14;;;;;;;3.83;2.58;;;11.70;99.90;12.50;93825.00;;;;7396035;19;20153;-78
2022/04/13 00:53:42;;;;;;;5.07;3.00;;;11.70;81.70;12.50;93826.00;;;;7397004;19;20125;-78
2022/04/13 00:56:11;;;;;;;3.75;2.10;;;11.70;99.90;12.50;93838.00;;;;7395301;19;20133;-79
2022/04/13 00:58:48;;;;;;;7.13;2.70;;;11.60;99.90;12.60;93826.00;;;;7396697;19;20594;-78
2022/04/13 01:01:15;;;;;;;3.25;2.42;;;11.70;99.90;12.60;93820.00;;;;7395571;19;20149;-77
2022/04/13 01:03:44;;;;;;;4.50;2.70;;;11.70;99.90;12.50;93844.00;;;;7394584;19;20125;-78
2022/04/13 01:06:19;;;;;;;6.00;3.28;;;11.70;99.90;12.60;93820.00;;;;7394678;19;20143;-78
2022/04/13 01:08:50;;;;;;;7.60;2.67;;;11.80;68.40;12.80;93825.00;;;;7395027;19;20200;-79
2022/04/13 01:11:27;;;;;;;4.28;2.80;;;11.90;51.40;12.90;93858.00;;;;7395732;19;20140;-78
2022/04/13 01:14:07;;;;;;;6.95;2.55;;;12.00;39.30;13.00;93811.00;;;;7392712;19;20168;-79
2022/04/13 01:16:41;;;;;;;7.13;2.72;;;12.00;20.10;12.70;93845.00;;;;7394606;19;20595;-78
2022/04/13 01:19:13;;;;;;;8.27;2.92;;;12.00;8.20;12.70;93848.00;;;;7394652;19;20129;-78
2022/04/13 01:21:53;;;;;;;10.15;2.92;;;12.00;9.80;13.00;93829.00;;;;7395250;19;20144;-78
2022/04/13 01:24:28;;;;;;;6.15;2.30;;;12.00;1.00;13.00;93833.00;;;;7395215;19;20546;-78
2022/04/13 01:26:56;;;;;;;4.13;2.15;;;12.00;1.00;12.80;93810.00;;;;7394075;19;20125;-78
2022/04/13 01:29:23;;;;;;;11.52;2.40;;;12.00;1.00;12.80;93840.00;;;;7393572;19;20137;-78
2022/04/13 01:31:57;;;;;;;4.30;2.10;;;12.00;1.00;12.60;93841.00;;;;7394561;19;20722;-78
2022/04/13 01:34:25;;;;;;;6.55;2.80;;;11.90;1.00;12.40;93824.00;;;;7396111;19;20643;-77
2022/04/13 01:36:52;;;;;;;3.60;1.90;;;11.90;1.00;12.20;93845.00;;;;7390397;19;20128;-78
2022/04/13 01:39:25;;;;;;;4.22;2.25;;;11.80;47.70;12.20;93843.00;;;;7397331;19;20141;-78
2022/04/13 01:41:52;;;;;;;3.70;2.10;;;11.60;31.50;12.50;93834.00;;;;7397762;19;20133;-78
2022/04/13 01:44:19;;;;;;;4.32;2.17;;;11.60;1.00;12.30;93855.00;;;;7392412;19;20251;-77
2022/04/13 01:46:53;;;;;;;8.70;2.15;;;11.60;1.00;12.20;93847.00;;;;7394960;19;20133;-77
2022/04/13 01:49:20;;;;;;;9.82;2.55;;;11.50;1.00;12.40;93848.00;;;;7397620;19;20158;-78
2022/04/13 01:51:47;;;;;;;4.78;2.22;;;11.50;1.00;12.30;93839.00;;;;7392962;19;20136;-78
2022/04/13 01:54:21;;;;;;;6.25;1.88;;;11.50;1.00;12.50;93832.00;;;;7392166;19;20491;-77
2022/04/13 01:56:48;;;;;;;3.13;1.83;;;11.50;1.00;12.00;93851.00;;;;7393631;19;20165;-77
2022/04/13 01:59:15;;;;;;;4.50;2.03;;;11.50;4.60;12.30;93847.00;;;;7393722;19;20473;-78
2022/04/13 02:01:50;;;;;;;7.25;2.10;;;11.50;1.00;12.40;93846.00;;;;7392173;19;20137;-76
2022/04/13 02:04:27;;;;;;;6.63;2.30;;;11.50;1.00;12.40;93862.00;;;;7390586;19;20141;-78
2022/04/13 02:07:02;;;;;;;7.80;2.10;;;11.50;1.00;12.20;93881.00;;;;7393530;19;20137;-77
2022/04/13 02:09:32;;;;;;;5.40;2.47;;;11.50;1.00;12.00;93860.00;;;;7393264;19;20193;-77
2022/04/13 02:11:59;;;;;;;5.25;3.05;;;11.30;1.00;12.00;93860.00;;;;7392572;19;20137;-79
2022/04/13 02:14:39;;;;;;;4.07;2.63;;;11.20;1.00;11.90;93884.00;;;;7390372;19;20141;-77
2022/04/13 02:17:10;;;;;;;5.88;2.08;;;11.20;16.40;11.60;93861.00;;;;7393263;19;20137;-77
2022/04/13 02:19:44;;;;;;;6.65;2.03;;;11.10;99.90;11.50;93874.00;;;;7392229;19;20139;-77
2022/04/13 02:22:11;;;;;;;9.88;2.78;;;11.00;99.90;11.70;93849.00;;;;7392784;19;20162;-77
2022/04/13 02:25:04;;;;;;;9.23;2.30;;;10.90;1.00;11.70;93860.00;;;;7391887;19;20136;-77
2022/04/13 02:27:38;;;;;;;7.25;2.15;;;11.00;24.30;11.90;93855.00;;;;7391757;19;20165;-78
2022/04/13 02:30:06;;;;;;;5.57;2.30;;;11.00;1.00;12.10;93874.00;;;;7392752;19;20589;-78
2022/04/13 02:32:43;;;;;;;6.93;2.10;;;11.10;1.00;11.90;93877.00;;;;7393175;19;20146;-78
2022/04/13 02:35:16;;;;;;;3.22;2.00;;;11.10;1.00;12.00;93848.00;;;;7391474;19;20149;-78
2022/04/13 02:37:43;;;;;;;3.58;1.90;;;11.10;1.00;12.00;93839.00;;;;7393307;19;20136;-78
2022/04/13 02:40:12;;;;;;;4.20;2.20;;;11.10;1.00;11.80;93846.00;;;;7394388;19;20138;-78
2022/04/13 02:42:46;;;;;;;5.38;1.88;;;11.10;1.00;11.90;93833.00;;;;7392817;19;20124;-78
2022/04/13 02:45:13;;;;;;;4.03;1.80;;;11.10;1.00;11.80;93844.00;;;;7392588;19;20133;-78
2022/04/13 02:47:40;;;;;;;4.40;2.10;;;11.00;1.00;11.90;93828.00;;;;7392460;19;20147;-78
2022/04/13 02:50:16;;;;;;;5.93;1.80;;;11.00;1.00;12.10;93847.00;;;;7391935;19;20139;-78
2022/04/13 02:52:43;;;;;;;4.38;1.50;;;11.10;1.00;11.80;93863.00;;;;7391290;19;20136;-78
2022/04/13 02:55:12;;;;;;;4.78;1.80;;;11.10;1.00;11.90;93822.00;;;;7391041;19;20133;-78
2022/04/13 02:57:46;;;;;;;4.57;1.90;;;11.10;1.00;12.30;93809.00;;;;7393490;19;20188;-77
2022/04/13 03:00:14;;;;;;;3.40;1.55;;;11.20;1.00;12.40;93834.00;;;;7390685;19;20644;-78
2022/04/13 03:02:41;;;;;;;4.13;1.52;;;11.30;1.00;12.30;93829.00;;;;7390357;19;20595;-78
2022/04/13 03:05:16;;;;;;;4.70;2.20;;;11.40;1.00;12.50;93823.00;;;;7389211;19;20144;-78
2022/04/13 03:07:43;;;;;;;2.25;1.27;;;11.40;1.00;12.10;93843.00;;;;7393110;19;20580;-78
2022/04/13 03:10:11;;;;;;;3.35;1.58;;;11.50;1.00;11.90;93799.00;;;;7391804;19;20136;-78
2022/04/13 03:12:52;;;;;;;2.88;1.73;;;11.40;1.00;11.80;93829.00;;;;7390100;19;20157;-78
2022/04/13 03:15:26;;;;;;;2.65;2.00;;;11.30;1.00;11.70;93830.00;;;;7391229;19;20208;-78
2022/04/13 03:17:59;;;;;;;3.65;1.73;;;11.20;1.00;11.70;93846.00;;;;7392348;19;20136;-77
2022/04/13 03:20:27;;;;;;;3.50;1.52;;;11.10;1.00;11.80;93836.00;;;;7390756;19;20154;-77
2022/04/13 03:22:54;;;;;;;4.90;2.10;;;11.10;1.00;11.60;93821.00;;;;7390261;19;20144;-78
2022/04/13 03:25:29;;;;;;;1.55;1.20;;;11.00;1.00;11.50;93839.00;;;;7391222;19;20599;-77
2022/04/13 03:27:57;;;;;;;4.35;1.63;;;10.90;1.00;11.40;93832.00;;;;7390700;19;20145;-77
2022/04/13 03:30:24;;;;;;;4.03;1.80;;;10.80;1.00;11.10;93857.00;;;;7389985;19;20592;-78
2022/04/13 03:32:58;;;;;;;6.03;1.65;;;10.70;1.00;11.20;93858.00;;;;7390291;19;20144;-77
2022/04/13 03:35:26;;;;;;;6.63;2.13;;;10.60;1.00;11.00;93861.00;;;;7390503;19;20124;-78
2022/04/13 03:37:54;;;;;;;3.50;1.70;;;10.50;1.00;11.20;93855.00;;;;7390374;19;20151;-77
2022/04/13 03:40:27;;;;;;;2.88;1.80;;;10.50;1.00;11.40;93847.00;;;;7390128;19;20132;-77
2022/04/13 03:42:54;;;;;;;4.13;1.60;;;10.50;1.00;11.80;93841.00;;;;7390681;19;20135;-78
2022/04/13 03:45:24;;;;;;;3.53;1.80;;;10.70;1.00;11.80;93829.00;;;;7392048;19;20443;-78
2022/04/13 03:47:58;;;;;;;3.67;1.83;;;10.80;1.00;11.50;93842.00;;;;7389879;19;20169;-78
2022/04/13 03:50:25;;;;;;;3.60;1.67;;;10.90;1.00;11.60;93850.00;;;;7390618;19;20137;-78
2022/04/13 03:52:59;;;;;;;4.28;2.03;;;10.90;1.00;11.60;93834.00;;;;7390444;19;20128;-77
2022/04/13 03:55:33;;;;;;;3.15;1.40;;;10.90;1.00;11.60;93833.00;;;;7390199;19;20487;-78
2022/04/13 03:58:00;;;;;;;8.63;1.90;;;10.90;1.00;11.60;93844.00;;;;7391256;19;20216;-78
2022/04/13 04:00:27;;;;;;;4.10;1.77;;;10.90;1.00;11.40;93859.00;;;;7391246;19;20125;-78
2022/04/13 04:03:01;;;;;;;3.17;1.83;;;10.80;1.00;11.50;93847.00;;;;7391348;19;20596;-77
2022/04/13 04:05:29;;;;;;;4.50;1.60;;;10.90;1.00;11.40;93847.00;;;;7391087;19;20153;-79
2022/04/13 04:07:56;;;;;;;5.45;1.60;;;10.80;1.00;11.30;93839.00;;;;7389798;19;20624;-77
2022/04/13 04:10:30;;;;;;;4.80;1.80;;;10.80;1.00;11.40;93846.00;;;;7388172;19;20169;-79
2022/04/13 04:13:13;;;;;;;5.57;2.00;;;10.70;1.00;11.40;93840.00;;;;7388987;19;20144;-79
2022/04/13 04:15:47;;;;;;;4.82;1.52;;;10.70;1.00;11.40;93840.00;;;;7388778;19;20143;-78
2022/04/13 04:18:15;;;;;;;3.63;2.00;;;10.70;1.00;11.20;93830.00;;;;7396178;19;20151;-79
2022/04/13 04:20:45;;;;;;;6.85;1.65;;;10.60;1.00;11.30;93841.00;;;;7398964;19;20129;-77
2022/04/13 04:23:20;;;;;;;3.80;1.83;;;10.60;1.00;11.30;93854.00;;;;7395035;19;20137;-77
2022/04/13 04:25:47;;;;;;;7.03;2.00;;;10.60;1.00;11.30;93847.00;;;;7395909;19;20140;-77
2022/04/13 04:28:15;;;;;;;2.63;1.83;;;10.60;1.00;11.10;93844.00;;;;7398403;19;20145;-77
2022/04/13 04:30:49;;;;;;;3.63;1.70;;;10.50;1.00;11.10;93849.00;;;;7397009;19;20602;-77
2022/04/13 04:33:16;;;;;;;4.50;1.75;;;10.50;1.00;11.40;93841.00;;;;7395878;19;20143;-77
2022/04/13 04:35:51;;;;;;;2.22;1.65;;;10.50;1.00;11.40;93827.00;;;;7395835;19;20693;-77
2022/04/13 04:38:27;;;;;;;6.88;1.65;;;10.60;1.00;11.40;93858.00;;;;7396812;19;20129;-77
2022/04/13 04:40:54;;;;;;;5.37;1.60;;;10.70;1.00;11.40;93849.00;;;;7395852;19;20129;-78
2022/04/13 04:43:21;;;;;;;3.10;1.75;;;10.70;1.00;11.30;93823.00;;;;7394903;19;20145;-77
2022/04/13 04:45:54;;;;;;;2.25;1.13;;;10.70;1.00;11.40;93842.00;;;;7395958;19;20148;-77
2022/04/13 04:48:21;;;;;;;4.05;1.45;;;10.70;1.00;11.30;93838.00;;;;7396104;19;20158;-77
2022/04/13 04:50:48;;;;;;;3.33;1.80;;;10.60;1.00;11.10;93823.00;;;;7395233;19;20147;-77
2022/04/13 04:53:25;;;;;;;5.05;1.80;;;10.50;1.00;11.00;93866.00;;;;7395217;19;20736;-78
2022/04/13 04:55:52;;;;;;;2.15;1.30;;;10.50;1.00;11.10;93852.00;;;;7396459;19;20137;-78
2022/04/13 04:58:19;;;;;;;6.03;1.58;;;10.40;1.00;11.10;93859.00;;;;7396639;19;20614;-77
2022/04/13 05:00:57;;;;;;;4.93;1.52;;;10.40;1.00;11.30;93856.00;;;;7396033;19;20129;-77
2022/04/13 05:03:24;;;;;;;6.20;1.60;;;10.50;1.00;11.40;93872.00;;;;7395811;19;20149;-77
2022/04/13 05:05:51;;;;;;;8.53;1.50;;;10.60;1.00;11.60;93864.00;;;;7395476;19;20795;-78
2022/04/13 05:08:25;;;;;;;4.45;1.63;;;10.70;1.00;11.60;93868.00;;;;7393858;19;20125;-75
2022/04/13 05:10:52;;;;;;;6.30;1.30;;;10.80;1.00;11.60;93871.00;;;;7391565;19;20648;-75
2022/04/13 05:13:20;;;;;;;8.85;1.85;;;10.80;1.00;11.60;93872.00;;;;7394563;19;20176;-76
2022/04/13 05:16:01;;;;;;;4.55;1.33;;;10.90;1.00;11.60;93851.00;;;;7394382;19;20208;-75
2022/04/13 05:18:28;;;;;;;4.30;1.58;;;10.80;1.00;11.50;93884.00;;;;7393549;19;20212;-75
2022/04/13 05:21:03;;;;;;;4.10;1.45;;;10.90;1.00;11.40;93883.00;;;;7393623;19;20139;-76
2022/04/13 05:23:31;;;;;;;3.83;1.23;;;10.80;1.00;11.50;93873.00;;;;7395145;19;20479;-77
2022/04/13 05:25:58;;;;;;;11.27;2.03;;;10.70;1.00;11.80;93883.00;;;;7394618;19;20596;-76
2022/04/13 05:28:31;;;;;;;4.00;1.35;;;10.70;1.00;11.90;93880.00;;;;7392208;19;20133;-76
2022/04/13 05:30:58;;;;;;;5.25;1.77;;;10.90;1.00;11.70;93873.00;;;;7395252;19;20125;-77
2022/04/13 05:33:26;;;;;;;4.95;1.60;;;10.90;1.00;11.60;93880.00;;;;7394231;19;20133;-76
2022/04/13 05:35:59;;;;;;;6.30;1.73;;;10.90;1.00;11.90;93897.00;;;;7396277;19;20515;-76
2022/04/13 05:38:27;;;;;;;6.70;1.67;;;11.00;1.00;11.60;93885.00;;;;7393156;19;20145;-76
2022/04/13 05:40:55;;;;;;;2.35;1.50;;;10.90;1.00;11.40;93907.00;;;;7396435;19;20482;-76
2022/04/13 05:43:33;;;;;;;6.75;1.50;;;10.80;1.00;11.60;93883.00;;;;7393114;19;20732;-76
2022/04/13 05:46:00;;;;;;;4.57;1.83;;;10.80;1.00;12.00;93904.00;;;;7392741;19;20679;-76
2022/04/13 05:48:27;;;;;;;5.78;1.67;;;10.90;1.00;12.20;93897.00;;;;7392993;19;20156;-76
2022/04/13 05:51:01;;;;;;;8.45;1.67;;;11.00;1.00;12.50;93908.00;;;;7393815;19;20145;-76
2022/04/13 05:53:30;;;;;;;3.45;1.65;;;11.20;1.00;12.60;93922.00;;;;7392771;19;20188;-76
2022/04/13 05:55:57;;;;;;;14.77;2.05;;;11.30;1.00;12.60;93897.00;;;;7391967;19;20264;-76
2022/04/13 05:58:30;;;;;;;5.15;1.73;;;11.40;1.00;12.50;93892.00;;;;7392759;19;20141;-76
2022/04/13 06:00:58;;;;;;;4.05;1.75;;;11.50;1.00;12.60;93897.00;;;;7392213;19;20605;-76
2022/04/13 06:03:25;;;;;;;2.63;1.70;;;11.50;1.00;12.60;93924.00;;;;7390654;19;20147;-76
2022/04/13 06:06:09;;;;;;;5.07;2.53;;;11.60;1.00;12.80;93923.00;;;;7392991;19;20129;-76
2022/04/13 06:08:37;;;;;;;4.10;1.77;;;11.70;1.00;12.90;93926.00;;;;7392485;19;20162;-77
2022/04/13 06:11:10;;;;;;;4.60;1.45;;;11.80;1.00;13.10;93905.00;;;;7392071;19;20167;-76
2022/04/13 06:13:44;;;;;;;5.05;1.98;;;11.90;4.10;13.30;93920.00;;;;7390595;19;20232;-76
2022/04/13 06:16:25;;;;;;;4.57;1.77;;;12.00;12.30;13.70;93904.00;;;;7392687;19;20225;-77
2022/04/13 06:18:52;;;;;;;2.50;1.52;;;12.10;45.40;13.70;93928.00;;;;7391785;19;20148;-77
2022/04/13 06:21:25;;;;;;;4.88;1.70;;;12.30;35.90;13.80;93905.00;;;;7387706;19;20153;-77
2022/04/13 06:23:52;;;;;;;5.95;2.15;;;12.40;11.90;14.10;93930.00;;;;7391223;19;20128;-77
2022/04/13 06:26:19;;;;;;;5.53;1.88;;;12.70;1.00;14.40;93947.00;;;;7391327;19;20151;-78
2022/04/13 06:28:53;;;;;;;5.25;1.63;;;12.90;1.00;14.80;93913.00;;;;7393283;19;20124;-78
2022/04/13 06:31:20;;;;;;;3.53;1.42;;;13.20;1.00;15.10;93912.00;;;;7393092;19;20121;-78
2022/04/13 06:33:48;;;;;;;6.43;1.77;;;13.40;1.00;15.40;93939.00;;;;7391634;19;20133;-76
2022/04/13 06:36:22;;;;;;;1.92;1.73;;;13.60;1.00;15.80;93934.00;;;;7392222;19;20858;-77
2022/04/13 06:38:49;;;;;;;4.78;1.52;;;13.90;1.00;15.90;93927.00;;;;7390915;19;20133;-77
2022/04/13 06:41:17;;;;;;;4.20;1.55;;;14.10;1.00;16.10;93941.00;;;;7391964;19;20234;-77
2022/04/13 06:43:52;;;;;;;2.60;1.70;;;14.30;1.00;16.30;93938.00;;;;7390414;19;20133;-77
2022/04/13 06:46:20;;;;;;;8.60;1.75;;;14.50;1.00;16.50;93938.00;;;;7390471;19;20145;-77
2022/04/13 06:48:47;;;;;;;9.65;1.70;;;14.80;1.00;16.80;93930.00;;;;7390429;19;20121;-76
2022/04/13 06:51:20;;;;;;;4.75;1.58;;;15.10;1.00;17.10;93909.00;;;;7391400;19;20129;-77
2022/04/13 06:53:47;;;;;;;6.55;1.50;;;15.40;1.00;17.60;93939.00;;;;7391001;19;20132;-76
2022/04/13 06:56:14;;;;;;;4.13;1.40;;;15.80;1.00;18.10;93922.00;;;;7390655;19;20497;-77
2022/04/13 06:58:48;;;;;;;3.65;1.50;;;16.00;1.00;18.40;93954.00;;;;7389938;19;20183;-77
2022/04/13 07:01:15;;;;;;;6.93;1.58;;;16.40;1.00;18.70;93928.00;;;;7392430;19;20149;-77
2022/04/13 07:03:43;;;;;;;4.53;1.60;;;16.70;1.00;18.90;93933.00;;;;7389663;19;20463;-78
2022/04/13 07:06:23;;;;;;;5.78;1.67;;;17.00;1.00;19.00;93949.00;;;;7389764;19;20161;-78
2022/04/13 07:09:10;;;;;;;5.18;1.65;;;17.30;1.40;19.50;93919.00;;;;7389185;19;20160;-79
2022/04/13 07:11:59;;;;;;;5.70;1.90;;;17.50;99.90;20.00;93928.00;;;;7388685;19;20128;-77
2022/04/13 07:14:33;;;;;;;3.60;1.52;;;17.80;99.90;20.30;93944.00;;;;7388497;19;20165;-76
2022/04/13 07:17:13;;;;;;;3.95;1.58;;;18.10;99.90;20.50;93953.00;;;;7389450;19;20132;-76
2022/04/13 07:19:40;;;;;;;5.38;1.80;;;18.30;99.90;19.80;93959.00;;;;7390787;19;20131;-77
2022/04/13 07:22:14;;;;;;;4.45;2.00;;;18.50;1.00;19.80;93953.00;;;;7390337;19;20144;-77
2022/04/13 07:24:41;;;;;;;6.32;1.88;;;18.70;99.90;19.60;93946.00;;;;7390137;19;20485;-77
2022/04/13 07:27:09;;;;;;;4.28;1.88;;;18.70;1.00;19.80;93955.00;;;;7389543;19;20620;-76
2022/04/13 07:29:42;;;;;;;5.75;2.08;;;18.70;1.00;20.20;93965.00;;;;7390457;19;20145;-76
2022/04/13 07:32:11;;;;;;;7.45;2.00;;;18.60;1.00;20.30;93961.00;;;;7389840;19;20146;-78
2022/04/13 07:34:38;;;;;;;3.90;1.92;;;18.60;1.00;20.60;93976.00;;;;7388984;19;20133;-77
2022/04/13 07:37:11;;;;;;;4.80;1.77;;;18.70;1.00;20.80;93965.00;;;;7389934;19;20148;-79
2022/04/13 07:39:38;;;;;;;5.10;2.13;;;18.70;1.00;21.00;93982.00;;;;7390187;19;20204;-77
2022/04/13 07:42:06;;;;;;;5.07;1.98;;;18.90;99.90;21.20;93980.00;;;;7390400;19;20178;-77
2022/04/13 07:44:39;;;;;;;6.25;1.92;;;19.10;99.90;21.50;93968.00;;;;7388732;19;20585;-76
2022/04/13 07:47:24;;;;;;;5.07;2.10;;;19.20;99.90;21.20;93969.00;;;;7389245;19;20596;-78
2022/04/13 07:49:59;;;;;;;3.70;2.05;;;19.50;99.90;21.80;93969.00;;;;7388712;19;20216;-78
2022/04/13 07:52:26;;;;;;;3.15;2.00;;;19.80;99.90;22.10;93973.00;;;;7393329;19;20140;-78
2022/04/13 07:54:53;;;;;;;4.75;1.90;;;20.10;99.90;22.20;93960.00;;;;7399430;19;20132;-78
2022/04/13 07:57:27;;;;;;;8.07;1.85;;;20.30;99.90;22.70;93976.00;;;;7396831;19;20117;-77
2022/04/13 07:59:55;;;;;;;7.60;2.13;;;20.60;99.90;23.20;93963.00;;;;7396775;19;20148;-78
2022/04/13 08:02:23;;;;;;;6.82;2.03;;;20.90;99.90;23.90;93973.00;;;;7397271;19;20142;-76
2022/04/13 08:05:04;;;;;;;6.25;2.08;;;21.30;99.90;23.90;93986.00;;;;7395441;19;20497;-76
2022/04/13 08:07:31;;;;;;;9.57;2.05;;;21.30;99.90;23.40;93970.00;;;;7397678;19;20184;-78
2022/04/13 08:10:06;;;;;;;4.38;1.90;;;21.50;99.90;23.40;93982.00;;;;7395583;19;20179;-78
2022/04/13 08:12:34;;;;;;;6.28;1.85;;;21.30;99.90;23.00;93983.00;;;;7396227;19;20133;-77
2022/04/13 08:15:04;;;;;;;6.03;2.17;;;21.20;99.90;22.80;94011.00;;;;7396258;19;20530;-77
2022/04/13 08:17:40;;;;;;;4.25;2.13;;;21.00;99.90;23.20;93984.00;;;;7396767;19;20619;-77
2022/04/13 08:20:13;;;;;;;4.80;1.75;;;21.00;99.90;23.80;94007.00;;;;7397058;19;20154;-77
2022/04/13 08:22:48;;;;;;;4.60;1.92;;;21.20;99.90;23.50;94004.00;;;;7395774;19;20129;-76
2022/04/13 08:25:15;;;;;;;4.88;2.05;;;21.50;99.90;23.80;93996.00;;;;7395211;19;20180;-77
2022/04/13 08:27:43;;;;;;;5.28;1.90;;;21.80;99.90;23.30;94002.00;;;;7395884;19;20129;-76
2022/04/13 08:30:18;;;;;;;7.38;1.90;;;21.80;99.90;23.40;93983.00;;;;7396950;19;20466;-76
2022/04/13 08:32:45;;;;;;;6.85;1.95;;;21.80;99.90;23.40;94003.00;;;;7395363;19;20216;-78
2022/04/13 08:35:12;;;;;;;5.47;1.98;;;21.60;99.90;24.00;93986.00;;;;7395232;19;20156;-76
2022/04/13 08:37:46;;;;;;;7.95;2.13;;;21.70;99.90;24.10;93992.00;;;;7396398;19;20140;-77
2022/04/13 08:40:16;;;;;;;5.03;1.95;;;22.00;99.90;23.80;93998.00;;;;7396303;19;20148;-78
2022/04/13 08:43:08;;;;;;;9.60;2.08;;;22.20;99.90;24.50;94003.00;;;;7394862;19;20134;-78
2022/04/13 08:46:13;;;;;;;5.25;1.80;;;22.60;99.90;24.80;94001.00;;;;7396133;19;20137;-76
2022/04/13 08:48:46;;;;;;;4.50;2.33;;;22.80;99.90;24.50;94008.00;;;;7396566;19;20133;-77
2022/04/13 08:51:40;;;;;;;4.25;1.60;;;23.10;99.90;25.50;94009.00;;;;7395968;19;20133;-77
2022/04/13 08:54:20;;;;;;;4.32;1.90;;;23.30;99.90;25.50;94010.00;;;;7396919;19;20137;-77
2022/04/13 08:56:58;;;;;;;6.07;2.08;;;23.60;99.90;26.20;94011.00;;;;7398725;19;20153;-78
2022/04/13 09:00:14;;;;;;;5.15;2.30;;;23.80;99.90;25.70;94005.00;;;;7399565;19;20591;-77
2022/04/13 09:02:47;;;;;;;6.97;1.80;;;24.10;99.90;25.90;94013.00;;;;7396195;19;20139;-78
2022/04/13 09:05:24;;;;;;;4.35;2.00;;;23.80;99.90;26.10;93991.00;;;;7397464;19;20137;-78
2022/04/13 09:08:35;;;;;;;7.53;2.25;;;23.90;99.90;26.10;94003.00;;;;7396180;19;20496;-76
2022/04/13 09:11:04;;;;;;;7.65;1.90;;;23.90;99.90;26.30;94021.00;;;;7394759;19;20738;-77
2022/04/13 09:13:53;;;;;;;4.20;1.88;;;24.00;99.90;26.50;93992.00;;;;7393035;19;20129;-78
2022/04/13 09:16:29;;;;;;;7.72;2.00;;;24.10;99.90;26.50;93999.00;;;;7393946;19;20241;-77
2022/04/13 09:19:04;;;;;;;6.10;1.63;;;24.40;99.90;27.00;94007.00;;;;7395310;19;20140;-77
2022/04/13 09:21:33;;;;;;;5.47;1.80;;;24.50;99.90;26.40;94007.00;;;;7397545;19;20149;-77
2022/04/13 09:24:01;;;;;;;8.45;2.00;;;24.30;99.90;26.30;94020.00;;;;7397429;19;20135;-78
2022/04/13 09:26:37;;;;;;;8.35;2.00;;;24.40;99.90;26.30;94025.00;;;;7397219;19;20622;-78
2022/04/13 09:29:04;;;;;;;8.63;2.15;;;24.50;99.90;26.70;94035.00;;;;7396395;19;20430;-78
2022/04/13 09:31:32;;;;;;;4.65;1.85;;;24.40;99.90;26.40;94017.00;;;;7396568;19;20159;-78
2022/04/13 09:34:06;;;;;;;4.43;1.70;;;24.70;99.90;26.80;94034.00;;;;7396574;19;20136;-78
2022/04/13 09:36:35;;;;;;;2.53;1.50;;;24.90;99.90;26.90;94038.00;;;;7394394;19;20149;-78
2022/04/13 09:39:02;;;;;;;4.38;1.77;;;24.90;99.90;27.20;94038.00;;;;7396076;19;20140;-78
2022/04/13 09:41:38;;;;;;;6.55;2.05;;;25.20;99.90;27.40;94018.00;;;;7396786;19;20228;-78
2022/04/13 09:44:14;;;;;;;4.75;1.90;;;25.20;99.90;26.90;94036.00;;;;7398008;19;20589;-78
2022/04/13 09:46:49;;;;;;;5.85;2.00;;;25.40;99.90;27.10;93990.00;;;;7397523;19;20125;-78
2022/04/13 09:49:19;;;;;;;4.78;1.80;;;25.50;99.90;28.10;94023.00;;;;7396808;19;20124;-80
2022/04/13 09:51:50;;;;;;;5.28;1.98;;;25.60;99.90;27.60;94033.00;;;;7396029;19;20149;-79
2022/04/13 09:54:30;;;;;;;11.15;2.08;;;25.60;99.90;27.20;94024.00;;;;7396064;19;20561;-78
2022/04/13 09:56:58;;;;;;;7.28;2.00;;;25.50;99.90;27.60;94012.00;;;;7396922;19;20133;-79
2022/04/13 09:59:37;;;;;;;8.60;2.05;;;25.50;99.90;27.80;93997.00;;;;7396723;19;20209;-79
2022/04/13 10:02:06;;;;;;;6.78;1.92;;;25.50;99.90;27.30;94035.00;;;;7394555;19;20128;-80
2022/04/13 10:04:41;;;;;;;5.43;2.15;;;25.50;99.90;27.90;94033.00;;;;7397031;19;20552;-77
2022/04/13 10:07:18;;;;;;;5.45;1.90;;;25.50;99.90;27.90;94036.00;;;;7394555;19;20128;-79
2022/04/13 10:09:53;;;;;;;7.50;2.10;;;25.40;99.90;27.70;94033.00;;;;7394026;19;20172;-78
2022/04/13 10:12:24;;;;;;;9.30;2.20;;;25.40;99.90;27.30;94004.00;;;;7396493;19;20117;-78
2022/04/13 10:14:52;;;;;;;4.18;2.00;;;25.60;99.90;27.70;94019.00;;;;7392298;19;20172;-77
2022/04/13 10:17:34;;;;;;;5.63;2.10;;;25.90;99.90;27.60;94031.00;;;;7393924;19;20202;-77
2022/04/13 10:20:02;;;;;;;11.32;2.10;;;25.70;99.90;27.80;94032.00;;;;7394804;19;20144;-77
2022/04/13 10:22:58;;;;;;;5.72;1.73;;;25.60;99.90;27.60;93997.00;;;;7395906;19;20137;-77
2022/04/13 10:25:27;;;;;;;5.32;2.17;;;25.60;99.90;27.90;94038.00;;;;7395315;19;20132;-77
2022/04/13 10:28:02;;;;;;;7.82;2.15;;;25.80;99.90;27.90;94019.00;;;;7395236;19;20136;-77
2022/04/13 10:30:35;;;;;;;4.50;1.98;;;26.10;99.90;28.30;94029.00;;;;7394134;19;20145;-78
2022/04/13 10:33:12;;;;;;;6.00;2.13;;;;;28.10;94030.00;;;;7393987;19;20480;-77
2022/04/13 10:35:45;;;;;;;9.10;2.25;;;26.70;99.90;28.60;94031.00;;;;7393330;19;20753;-77
2022/04/13 10:38:18;;;;;;;7.10;1.98;;;26.90;99.90;27.30;94037.00;;;;7394157;19;20607;-79
2022/04/13 10:40:50;;;;;;;5.72;1.88;;;26.80;99.90;28.00;94030.00;;;;7394367;19;20137;-77
2022/04/13 10:43:21;;;;;;;8.23;2.05;;;26.60;99.90;27.80;94038.00;;;;7394634;19;20125;-78
2022/04/13 10:45:58;;;;;;;6.88;2.08;;;26.70;99.90;28.00;94029.00;;;;7393908;19;20143;-79
2022/04/13 10:48:32;;;;;;;4.18;2.08;;;26.90;99.90;28.30;94039.00;;;;7396091;19;20148;-79
2022/04/13 10:51:25;;;;;;;8.25;2.10;;;26.80;99.90;28.40;94026.00;;;;7393879;19;20169;-79
2022/04/13 10:54:02;;;;;;;11.05;2.15;;;26.70;99.90;28.40;94027.00;;;;7392965;19;20140;-79
2022/04/13 10:56:42;;;;;;;5.68;1.88;;;26.80;99.90;28.80;94024.00;;;;7395405;19;20131;-79
2022/04/13 10:59:36;;;;;;;5.70;1.95;;;27.00;99.90;28.30;94043.00;;;;7393678;19;20153;-79
2022/04/13 11:02:29;;;;;;;7.72;1.80;;;27.10;99.90;29.10;94006.00;;;;7393878;19;20256;-79
2022/04/13 11:04:58;;;;;;;8.95;2.08;;;27.40;99.90;29.10;94028.00;;;;7395533;19;20151;-78
2022/04/13 11:07:33;;;;;;;8.90;1.83;;;27.60;99.90;29.30;94032.00;;;;7393019;19;20159;-79
2022/04/13 11:10:03;;;;;;;7.80;2.03;;;27.90;99.90;29.50;94010.00;;;;7391564;19;20140;-79
2022/04/13 11:12:32;;;;;;;6.32;2.40;;;28.20;99.90;29.50;94006.00;;;;7393809;19;20136;-78
2022/04/13 11:15:13;;;;;;;6.18;2.20;;;28.50;99.90;30.10;94019.00;;;;7395793;19;20517;-79
2022/04/13 11:17:43;;;;;;;5.35;1.95;;;28.90;99.90;30.10;94035.00;;;;7391650;19;20126;-78
2022/04/13 11:20:22;;;;;;;4.03;1.92;;;28.60;99.90;30.10;94028.00;;;;7393236;19;20144;-78